createdAt,value
2022-09-05T00:00:19.829Z,10.90
2022-09-05T00:03:02.895Z,9.43
2022-09-05T00:05:49.575Z,16.20
2022-09-05T00:08:57.397Z,10.87
2022-09-05T00:11:44.912Z,10.60
2022-09-05T00:15:14.689Z,9.60
2022-09-05T00:20:40.702Z,13.30
2022-09-05T00:24:37.403Z,10.57
2022-09-05T00:25:00.738Z,12.33
2022-09-05T00:27:39.971Z,13.13
2022-09-05T00:31:06.831Z,10.90
2022-09-05T00:33:48.754Z,10.80
2022-09-05T00:36:54.837Z,11.93
2022-09-05T00:39:27.674Z,12.33
2022-09-05T00:41:59.625Z,13.57
2022-09-05T00:44:33.854Z,14.83
2022-09-05T00:47:05.960Z,11.70
2022-09-05T00:50:00.002Z,11.70
2022-09-05T00:52:54.110Z,11.10
2022-09-05T00:55:59.411Z,12.90
2022-09-05T00:59:33.391Z,11.40
2022-09-05T01:02:26.326Z,13.47
2022-09-05T01:05:26.447Z,11.37
2022-09-05T01:08:20.739Z,12.03
2022-09-05T01:11:09.916Z,11.73
2022-09-05T01:14:24.128Z,14.90
2022-09-05T01:17:11.398Z,11.97
2022-09-05T01:22:46.259Z,11.30
2022-09-05T01:25:18.779Z,10.80
2022-09-05T01:28:30.959Z,12.03
2022-09-05T01:30:57.944Z,12.93
2022-09-05T01:34:00.821Z,13.40
2022-09-05T01:36:58.433Z,15.27
2022-09-05T01:40:12.374Z,11.53
2022-09-05T01:43:09.806Z,11.60
2022-09-05T01:45:51.786Z,14.00
2022-09-05T01:48:47.777Z,13.20
2022-09-05T01:51:36.672Z,12.53
2022-09-05T01:54:29.907Z,12.73
2022-09-05T01:57:11.486Z,12.43
2022-09-05T02:00:17.807Z,12.23
2022-09-05T02:03:19.368Z,11.97
2022-09-05T02:06:34.297Z,17.33
2022-09-05T02:09:40.188Z,11.90
2022-09-05T02:12:16.189Z,17.30
2022-09-05T02:15:05.102Z,12.47
2022-09-05T02:17:50.897Z,11.43
2022-09-05T02:20:32.008Z,13.30
2022-09-05T02:23:41.924Z,11.23
2022-09-05T02:26:24.543Z,12.27
2022-09-05T02:29:29.158Z,12.80
2022-09-05T02:32:36.207Z,12.63
2022-09-05T02:35:13.725Z,12.60
2022-09-05T02:40:06.183Z,11.23
2022-09-05T02:45:09.927Z,14.30
2022-09-05T02:45:11.607Z,11.73
2022-09-05T02:47:40.978Z,12.67
2022-09-05T02:53:59.162Z,13.10
2022-09-05T02:57:18.918Z,11.90
2022-09-05T02:57:40.977Z,11.90
2022-09-05T02:59:46.030Z,12.97
2022-09-05T03:02:26.391Z,13.70
2022-09-05T03:05:28.546Z,12.37
2022-09-05T03:08:55.441Z,12.10
2022-09-05T03:11:51.492Z,14.00
2022-09-05T03:14:30.628Z,16.70
2022-09-05T03:17:19.108Z,14.43
2022-09-05T03:20:18.004Z,12.50
2022-09-05T03:23:45.926Z,12.60
2022-09-05T03:26:33.845Z,14.30
2022-09-05T03:29:58.618Z,12.60
2022-09-05T03:33:05.945Z,15.07
2022-09-05T03:35:36.086Z,12.27
2022-09-05T03:38:47.226Z,13.30
2022-09-05T03:41:42.098Z,15.03
2022-09-05T03:44:32.741Z,13.27
2022-09-05T03:47:38.128Z,13.73
2022-09-05T03:57:05.025Z,15.60
2022-09-05T03:57:16.930Z,13.90
2022-09-05T03:57:37.064Z,14.53
2022-09-05T04:00:22.503Z,15.23
2022-09-05T04:08:11.460Z,15.90
2022-09-05T04:08:28.344Z,14.40
2022-09-05T04:09:51.513Z,15.37
2022-09-05T04:12:46.168Z,13.63
2022-09-05T04:15:47.010Z,15.80
2022-09-05T04:18:32.615Z,14.67
2022-09-05T04:21:22.375Z,14.70
2022-09-05T04:24:04.480Z,15.13
2022-09-05T04:26:56.203Z,14.63
2022-09-05T04:30:00.214Z,14.90
2022-09-05T04:33:04.544Z,13.70
2022-09-05T04:35:40.809Z,14.90
2022-09-05T04:38:16.934Z,23.90
2022-09-05T04:41:09.865Z,21.63
2022-09-05T04:44:04.895Z,18.37
2022-09-05T04:46:54.880Z,23.80
2022-09-05T04:49:33.587Z,19.63
2022-09-05T04:52:25.322Z,21.27
2022-09-05T04:55:14.133Z,16.23
2022-09-05T04:58:07.314Z,25.10
2022-09-05T05:06:03.586Z,16.67
2022-09-05T05:06:13.105Z,20.03
2022-09-05T05:06:45.651Z,15.30
2022-09-05T05:09:24.422Z,14.80
2022-09-05T05:17:54.474Z,15.67
2022-09-05T05:18:15.633Z,15.47
2022-09-05T05:21:30.690Z,15.63
2022-09-05T05:24:07.765Z,16.10
2022-09-05T05:27:13.052Z,16.70
2022-09-05T05:29:46.144Z,16.57
2022-09-05T05:32:31.615Z,18.33
2022-09-05T05:35:21.013Z,16.10
2022-09-05T05:38:16.447Z,14.70
2022-09-05T05:40:52.116Z,23.23
2022-09-05T05:43:32.842Z,15.07
2022-09-05T05:46:00.941Z,13.93
2022-09-05T05:48:40.616Z,17.63
2022-09-05T05:52:00.958Z,14.80
2022-09-05T05:55:37.551Z,13.60
2022-09-05T05:58:01.755Z,14.20
2022-09-05T06:01:09.409Z,22.97
2022-09-05T06:04:43.328Z,17.93
2022-09-05T06:09:30.459Z,14.50
2022-09-05T06:14:56.697Z,18.13
2022-09-05T06:15:08.729Z,14.57
2022-09-05T06:17:39.258Z,17.23
2022-09-05T06:22:08.485Z,12.30
2022-09-05T06:24:26.428Z,13.87
2022-09-05T06:27:57.998Z,15.97
2022-09-05T06:30:25.671Z,12.57
2022-09-05T06:33:17.036Z,12.97
2022-09-05T06:36:07.296Z,14.03
2022-09-05T06:39:06.352Z,15.30
2022-09-05T06:42:01.548Z,13.53
2022-09-05T06:45:00.279Z,11.53
2022-09-05T06:47:48.080Z,13.77
2022-09-05T06:51:07.141Z,25.10
2022-09-05T06:54:04.422Z,12.23
2022-09-05T06:57:08.435Z,17.47
2022-09-05T07:00:26.051Z,21.07
2022-09-05T07:03:20.911Z,12.40
2022-09-05T07:06:20.792Z,14.13
2022-09-05T07:09:08.425Z,13.20
2022-09-05T07:12:18.329Z,14.37
2022-09-05T07:15:12.802Z,13.30
2022-09-05T07:18:11.143Z,13.37
2022-09-05T07:21:26.338Z,13.20
2022-09-05T07:24:11.034Z,10.27
2022-09-05T07:26:53.820Z,12.90
2022-09-05T07:29:57.857Z,11.63
2022-09-05T07:32:32.375Z,12.27
2022-09-05T07:35:03.255Z,13.47
2022-09-05T07:37:43.289Z,11.00
2022-09-05T07:40:25.814Z,10.20
2022-09-05T07:43:09.219Z,16.80
2022-09-05T07:45:50.817Z,12.20
2022-09-05T07:48:34.424Z,16.10
2022-09-05T07:56:47.953Z,14.40
2022-09-05T07:57:00.801Z,14.10
2022-09-05T07:59:58.597Z,10.93
2022-09-05T08:02:25.807Z,11.90
2022-09-05T08:05:02.514Z,12.20
2022-09-05T08:07:49.388Z,14.53
2022-09-05T08:11:21.960Z,15.00
2022-09-05T08:13:29.480Z,12.43
2022-09-05T08:16:13.008Z,13.83
2022-09-05T08:19:31.250Z,14.23
2022-09-05T08:22:01.091Z,20.70
2022-09-05T08:24:38.171Z,12.37
2022-09-05T08:27:24.616Z,14.07
2022-09-05T08:30:27.470Z,13.87
2022-09-05T08:33:21.011Z,16.20
2022-09-05T08:36:00.815Z,21.43
2022-09-05T08:38:34.502Z,12.80
2022-09-05T08:41:49.504Z,18.07
2022-09-05T08:46:45.726Z,13.10
2022-09-05T08:47:45.275Z,11.67
2022-09-05T08:50:28.112Z,13.87
2022-09-05T08:53:46.521Z,15.47
2022-09-05T08:56:31.228Z,15.50
2022-09-05T08:59:37.963Z,12.33
2022-09-05T09:02:53.168Z,12.20
2022-09-05T09:06:12.347Z,12.93
2022-09-05T09:08:50.697Z,16.93
2022-09-05T09:11:37.500Z,13.83
2022-09-05T09:14:44.691Z,14.10
2022-09-05T09:17:20.647Z,13.50
2022-09-05T09:19:53.078Z,14.30
2022-09-05T09:23:08.394Z,11.60
2022-09-05T09:26:17.794Z,13.13
2022-09-05T09:28:56.351Z,13.70
2022-09-05T09:31:57.648Z,14.00
2022-09-05T09:34:31.796Z,11.83
2022-09-05T09:37:50.819Z,12.37
2022-09-05T09:40:39.937Z,14.70
2022-09-05T09:43:27.853Z,15.07
2022-09-05T09:46:34.142Z,12.17
2022-09-05T09:49:32.124Z,12.27
2022-09-05T09:52:21.164Z,12.50
2022-09-05T09:55:41.068Z,11.20
2022-09-05T09:58:49.517Z,12.73
2022-09-05T10:01:53.586Z,11.80
2022-09-05T10:10:37.981Z,11.50
2022-09-05T10:10:51.624Z,13.03
2022-09-05T10:14:49.757Z,14.00
2022-09-05T10:17:47.089Z,10.17
2022-09-05T10:20:44.736Z,14.60
2022-09-05T10:24:16.665Z,10.40
2022-09-05T10:27:39.521Z,9.60
2022-09-05T10:31:55.550Z,10.30
2022-09-05T10:35:09.385Z,10.13
2022-09-05T10:36:40.663Z,9.37
2022-09-05T10:39:25.798Z,10.30
2022-09-05T10:42:06.960Z,13.63
2022-09-05T10:45:14.882Z,9.67
2022-09-05T10:48:22.076Z,10.00
2022-09-05T10:51:27.138Z,11.83
2022-09-05T10:54:20.121Z,8.77
2022-09-05T10:57:12.096Z,7.90
2022-09-05T11:02:18.800Z,7.77
2022-09-05T11:03:24.881Z,8.63
2022-09-05T11:05:59.719Z,7.20
2022-09-05T11:09:17.716Z,6.90
2022-09-05T11:11:55.794Z,5.67
2022-09-05T11:14:51.372Z,5.20
2022-09-05T11:17:30.678Z,6.17
2022-09-05T11:20:51.817Z,6.07
2022-09-05T11:23:40.743Z,12.57
2022-09-05T11:26:44.523Z,5.37
2022-09-05T11:29:24.657Z,8.57
2022-09-05T11:34:00.185Z,6.07
2022-09-05T11:39:45.935Z,7.53
2022-09-05T11:40:03.625Z,6.20
2022-09-05T11:42:04.687Z,4.97
2022-09-05T11:44:56.845Z,5.87
2022-09-05T11:48:10.230Z,5.37
2022-09-05T11:51:06.753Z,5.47
2022-09-05T11:53:57.446Z,5.57
2022-09-05T11:56:42.631Z,6.50
2022-09-05T11:59:44.975Z,5.83
2022-09-05T12:02:37.825Z,4.80
2022-09-05T12:05:50.166Z,6.40
2022-09-05T12:08:53.052Z,6.00
2022-09-05T12:11:55.147Z,5.77
2022-09-05T12:14:57.264Z,5.63
2022-09-05T12:18:28.760Z,5.77
2022-09-05T12:21:57.238Z,5.83
2022-09-05T12:25:24.283Z,6.20
2022-09-05T12:28:15.244Z,9.10
2022-09-05T12:30:55.033Z,5.43
2022-09-05T12:36:04.557Z,4.40
2022-09-05T12:40:40.588Z,6.83
2022-09-05T12:41:32.477Z,7.87
2022-09-05T12:44:40.226Z,6.17
2022-09-05T12:45:47.699Z,13.40
2022-09-05T12:48:39.148Z,3.47
2022-09-05T12:51:45.204Z,3.53
2022-09-05T12:54:29.887Z,3.30
2022-09-05T13:00:58.521Z,4.00
2022-09-05T13:03:05.333Z,3.90
2022-09-05T13:03:31.951Z,6.20
2022-09-05T13:06:24.989Z,5.03
2022-09-05T13:11:05.101Z,5.33
2022-09-05T13:14:57.340Z,4.90
2022-09-05T13:15:51.247Z,5.47
2022-09-05T13:18:24.107Z,5.23
2022-09-05T13:21:08.465Z,6.00
2022-09-05T13:24:05.235Z,5.30
2022-09-05T13:26:57.795Z,8.70
2022-09-05T13:29:53.847Z,6.83
2022-09-05T13:38:00.413Z,7.63
2022-09-05T13:38:05.479Z,6.83
2022-09-05T13:38:52.469Z,10.40
2022-09-05T13:41:37.168Z,8.13
2022-09-05T13:44:27.900Z,6.13
2022-09-05T13:47:14.781Z,6.90
2022-09-05T13:50:26.685Z,8.17
2022-09-05T13:53:28.408Z,7.73
2022-09-05T13:56:28.295Z,11.70
2022-09-05T13:59:09.685Z,6.57
2022-09-05T14:02:25.626Z,8.17
2022-09-05T14:05:08.324Z,6.50
2022-09-05T14:08:36.234Z,8.13
2022-09-05T14:11:21.465Z,5.33
2022-09-05T14:15:08.094Z,5.20
2022-09-05T14:20:29.443Z,5.77
2022-09-05T14:23:09.525Z,4.53
2022-09-05T14:25:46.296Z,4.70
2022-09-05T14:28:36.470Z,10.80
2022-09-05T14:33:48.061Z,6.50
2022-09-05T14:37:42.575Z,7.67
2022-09-05T14:38:01.656Z,6.20
2022-09-05T14:40:53.256Z,5.50
2022-09-05T14:44:01.634Z,5.13
2022-09-05T14:47:35.211Z,5.60
2022-09-05T14:50:37.841Z,3.20
2022-09-05T14:57:04.148Z,4.90
2022-09-05T15:02:49.281Z,3.67
2022-09-05T15:02:49.755Z,4.77
2022-09-05T15:05:28.712Z,4.50
2022-09-05T15:08:53.758Z,4.50
2022-09-05T15:12:21.380Z,5.30
2022-09-05T15:14:19.463Z,5.27
2022-09-05T15:17:05.718Z,3.50
2022-09-05T15:20:08.413Z,3.57
2022-09-05T15:22:43.718Z,3.40
2022-09-05T15:25:17.949Z,3.73
2022-09-05T15:27:47.271Z,2.63
2022-09-05T15:30:22.716Z,3.97
2022-09-05T15:33:25.249Z,3.30
2022-09-05T15:35:53.623Z,3.20
2022-09-05T15:38:55.456Z,3.70
2022-09-05T15:41:29.416Z,3.13
2022-09-05T15:44:10.151Z,4.57
2022-09-05T15:47:01.757Z,3.10
2022-09-05T15:49:39.973Z,4.07
2022-09-05T15:52:16.357Z,2.80
2022-09-05T15:55:10.715Z,3.10
2022-09-05T15:57:53.898Z,3.33
2022-09-05T16:00:34.718Z,3.37
2022-09-05T16:05:08.926Z,3.97
2022-09-05T16:10:30.050Z,4.00
2022-09-05T16:10:48.233Z,9.83
2022-09-05T16:16:51.393Z,4.43
2022-09-05T16:23:13.819Z,4.10
2022-09-05T16:23:31.193Z,9.57
2022-09-05T16:24:59.908Z,4.00
2022-09-05T16:27:43.840Z,5.63
2022-09-05T16:30:23.443Z,6.27
2022-09-05T16:32:57.931Z,6.37
2022-09-05T16:35:28.638Z,5.87
2022-09-05T16:38:52.753Z,5.67
2022-09-05T16:41:41.840Z,11.87
2022-09-05T16:44:24.034Z,8.40
2022-09-05T16:47:12.024Z,10.07
2022-09-05T16:49:49.449Z,5.77
2022-09-05T16:52:32.666Z,7.37
2022-09-05T16:55:37.054Z,8.73
2022-09-05T16:58:19.586Z,7.00
2022-09-05T17:01:05.263Z,7.63
2022-09-05T17:03:56.903Z,7.33
2022-09-05T17:07:04.465Z,8.97
2022-09-05T17:09:43.208Z,7.53
2022-09-05T17:12:26.146Z,6.33
2022-09-05T17:15:02.136Z,9.07
2022-09-05T17:18:19.667Z,9.00
2022-09-05T17:20:37.090Z,8.17
2022-09-05T17:29:15.722Z,8.30
2022-09-05T17:29:42.213Z,8.50
2022-09-05T17:32:50.820Z,9.50
2022-09-05T17:35:42.776Z,10.00
2022-09-05T17:38:55.461Z,10.73
2022-09-05T17:41:58.496Z,11.40
2022-09-05T17:45:13.989Z,11.33
2022-09-05T17:47:57.599Z,9.97
2022-09-05T17:50:33.150Z,10.77
2022-09-05T17:53:25.841Z,10.37
2022-09-05T17:55:52.183Z,11.30
2022-09-05T17:58:49.039Z,12.93
2022-09-05T18:01:28.885Z,12.47
2022-09-05T18:04:16.475Z,13.77
2022-09-05T18:06:58.909Z,10.00
2022-09-05T18:09:40.125Z,12.90
2022-09-05T18:13:13.158Z,11.97
2022-09-05T18:15:39.934Z,12.80
2022-09-05T18:21:21.105Z,11.20
2022-09-05T18:23:58.639Z,12.03
2022-09-05T18:26:28.129Z,15.10
2022-09-05T18:29:58.067Z,13.70
2022-09-05T18:32:12.545Z,11.73
2022-09-05T18:34:41.862Z,15.87
2022-09-05T18:37:37.859Z,13.57
2022-09-05T18:40:08.965Z,15.00
2022-09-05T18:42:47.185Z,12.87
2022-09-05T18:45:17.840Z,11.20
2022-09-05T18:48:00.228Z,14.40
2022-09-05T18:50:40.415Z,16.37
2022-09-05T18:53:12.866Z,13.60
2022-09-05T18:56:20.163Z,16.90
2022-09-05T18:59:10.277Z,14.87
2022-09-05T19:02:40.375Z,12.83
2022-09-05T19:05:11.565Z,14.63
2022-09-05T19:07:48.803Z,14.77
2022-09-05T19:10:35.731Z,14.73
2022-09-05T19:13:26.392Z,13.47
2022-09-05T19:16:43.875Z,12.63
2022-09-05T19:19:20.665Z,16.70
2022-09-05T19:22:49.950Z,17.07
2022-09-05T19:24:46.394Z,14.20
2022-09-05T19:28:26.332Z,13.90
2022-09-05T19:36:45.465Z,15.30
2022-09-05T19:36:56.450Z,15.20
2022-09-05T19:37:03.966Z,14.03
2022-09-05T19:40:56.212Z,15.57
2022-09-05T19:47:27.951Z,14.07
2022-09-05T19:47:46.499Z,13.77
2022-09-05T19:50:24.831Z,14.40
2022-09-05T19:53:06.513Z,16.63
2022-09-05T19:55:37.344Z,16.20
2022-09-05T19:58:29.481Z,15.00
2022-09-05T20:01:08.435Z,15.00
2022-09-05T20:03:43.255Z,15.30
2022-09-05T20:06:28.802Z,19.20
2022-09-05T20:09:19.561Z,13.80
2022-09-05T20:11:53.846Z,14.93
2022-09-05T20:14:31.070Z,15.10
2022-09-05T20:17:21.136Z,14.63
2022-09-05T20:19:49.287Z,15.37
2022-09-05T20:22:47.398Z,15.13
2022-09-05T20:25:36.675Z,33.63
2022-09-05T20:28:15.610Z,16.40
2022-09-05T20:31:27.158Z,17.27
2022-09-05T20:34:24.618Z,19.83
2022-09-05T20:43:16.950Z,16.40
2022-09-05T20:43:31.288Z,16.90
2022-09-05T20:43:31.364Z,20.70
2022-09-05T20:46:40.331Z,19.10
2022-09-05T20:54:09.930Z,15.57
2022-09-05T20:54:26.711Z,16.57
2022-09-05T20:54:43.953Z,15.70
2022-09-05T20:57:18.009Z,17.00
2022-09-05T20:59:47.297Z,17.03
2022-09-05T21:02:27.991Z,16.27
2022-09-05T21:05:20.598Z,15.83
2022-09-05T21:08:07.085Z,17.00
2022-09-05T21:10:55.916Z,18.70
2022-09-05T21:13:37.599Z,19.07
2022-09-05T21:16:22.781Z,17.27
2022-09-05T21:18:51.921Z,17.37
2022-09-05T21:21:29.751Z,16.77
2022-09-05T21:24:18.082Z,18.87
2022-09-05T21:26:50.127Z,16.97
2022-09-05T21:29:33.346Z,18.70
2022-09-05T21:32:03.935Z,19.63
2022-09-05T21:34:46.394Z,17.53
2022-09-05T21:37:16.282Z,18.07
2022-09-05T21:40:00.184Z,19.20
2022-09-05T21:47:33.048Z,18.10
2022-09-05T21:47:37.584Z,17.50
2022-09-05T21:48:15.266Z,17.60
2022-09-05T21:50:49.641Z,18.93
2022-09-05T21:55:09.335Z,18.70
2022-09-05T21:59:18.011Z,19.87
2022-09-05T22:02:08.908Z,18.70
2022-09-05T22:04:40.075Z,22.20
2022-09-05T22:07:14.483Z,18.87
2022-09-05T22:09:41.959Z,19.30
2022-09-05T22:12:29.822Z,21.53
2022-09-05T22:15:26.246Z,19.47
2022-09-05T22:17:51.107Z,22.80
2022-09-05T22:20:22.307Z,20.63
2022-09-05T22:22:56.382Z,20.43
2022-09-05T22:25:30.863Z,21.53
2022-09-05T22:28:19.451Z,18.70
2022-09-05T22:30:46.643Z,24.23
2022-09-05T22:33:14.028Z,19.73
2022-09-05T22:35:41.883Z,23.27
2022-09-05T22:38:15.326Z,23.60
2022-09-05T22:40:46.565Z,21.33
2022-09-05T22:43:16.555Z,21.63
2022-09-05T22:45:43.737Z,30.73
2022-09-05T22:48:14.002Z,21.30
2022-09-05T22:50:42.634Z,20.80
2022-09-05T22:53:10.591Z,20.47
2022-09-05T22:55:41.924Z,20.43
2022-09-05T22:58:12.582Z,23.70
2022-09-05T23:00:41.319Z,22.93
2022-09-05T23:03:08.477Z,21.83
2022-09-05T23:05:36.049Z,22.60
2022-09-05T23:08:05.968Z,21.30
2022-09-05T23:10:34.425Z,22.57
2022-09-05T23:13:08.762Z,22.13
2022-09-05T23:15:37.181Z,23.57
2022-09-05T23:18:05.226Z,24.20
2022-09-05T23:20:33.708Z,22.33
2022-09-05T23:23:05.399Z,23.43
2022-09-05T23:25:34.092Z,22.70
2022-09-05T23:28:09.615Z,22.17
2022-09-05T23:30:37.770Z,26.80
2022-09-05T23:33:09.749Z,23.30
2022-09-05T23:35:37.694Z,23.87
2022-09-05T23:38:10.519Z,24.07
2022-09-05T23:40:38.940Z,25.60
2022-09-05T23:43:07.876Z,24.00
2022-09-05T23:45:35.274Z,25.00
2022-09-05T23:48:02.978Z,25.07
2022-09-05T23:50:30.091Z,26.80
2022-09-05T23:53:03.690Z,23.17
2022-09-05T23:55:32.291Z,23.77
2022-09-05T23:57:59.723Z,23.97
